Terminal Aerodrome Forecast
Issued by NWS

Home | Current Version | Previous Version | Text Only | Print | Product List | Glossary On
Versions: 1 2 3 4 5 6 7 8 9 10 11 12 13 14 15 16 17 18
965
FTUS41 KCAR 222337
TAFBHB
TAF
KBHB 222337Z 2300/2324 19011KT 4SM BR OVC002
     FM230200 20012G20KT 2SM BR OVC003
     FM230400 20013G21KT 3SM -RA BR OVC002
     FM230700 21013G21KT 4SM BR VCSH OVC006
     FM231300 21012G20KT P6SM VCSH SCT006 OVC015
     FM231700 23010KT P6SM SCT015 BKN045=

USA.gov is the U.S. government's official web portal to all federal, state and local government web resources and services.